createdAt,value
2022-08-24T00:00:22.996Z,15.60
2022-08-24T00:03:24.421Z,15.50
2022-08-24T00:06:32.156Z,15.50
2022-08-24T00:09:33.438Z,15.40
2022-08-24T00:12:34.631Z,15.30
2022-08-24T00:15:35.780Z,15.30
2022-08-24T00:18:37.194Z,15.40
2022-08-24T00:21:38.749Z,15.50
2022-08-24T00:24:40.160Z,15.50
2022-08-24T00:27:42.232Z,15.60
2022-08-24T00:30:44.524Z,15.70
2022-08-24T00:33:45.577Z,15.70
2022-08-24T00:36:46.954Z,15.70
2022-08-24T00:39:47.987Z,15.70
2022-08-24T00:42:50.880Z,15.70
2022-08-24T00:46:14.660Z,15.70
2022-08-24T00:49:36.189Z,15.80
2022-08-24T00:52:49.539Z,15.80
2022-08-24T00:55:57.432Z,15.70
2022-08-24T00:59:05.466Z,15.70
2022-08-24T01:02:22.390Z,15.50
2022-08-24T01:05:23.300Z,15.80
2022-08-24T01:08:25.475Z,15.60
2022-08-24T01:11:33.923Z,15.40
2022-08-24T01:14:35.626Z,15.40
2022-08-24T01:17:56.715Z,15.20
2022-08-24T01:21:16.393Z,15.10
2022-08-24T01:24:18.154Z,15.10
2022-08-24T01:27:21.000Z,15.10
2022-08-24T01:30:30.697Z,15.10
2022-08-24T01:33:38.396Z,15.00
2022-08-24T01:36:56.332Z,14.80
2022-08-24T01:40:00.341Z,14.80
2022-08-24T01:43:07.648Z,14.70
2022-08-24T01:46:09.283Z,14.70
2022-08-24T01:49:10.835Z,14.70
2022-08-24T01:52:20.216Z,14.50
2022-08-24T01:55:22.377Z,14.70
2022-08-24T01:58:24.766Z,14.80
2022-08-24T02:01:30.194Z,14.40
2022-08-24T02:04:34.993Z,14.50
2022-08-24T02:07:36.501Z,14.50
2022-08-24T02:10:37.800Z,14.50
2022-08-24T02:13:42.572Z,14.40
2022-08-24T02:16:43.610Z,14.60
2022-08-24T02:19:46.311Z,14.70
2022-08-24T02:22:48.236Z,14.60
2022-08-24T02:25:51.092Z,14.60
2022-08-24T02:28:52.109Z,14.40
2022-08-24T02:31:54.057Z,14.30
2022-08-24T02:34:55.954Z,14.30
2022-08-24T02:37:58.792Z,14.40
2022-08-24T02:41:01.602Z,14.40
2022-08-24T02:44:05.877Z,14.40
2022-08-24T02:47:08.016Z,14.40
2022-08-24T02:50:14.655Z,14.30
2022-08-24T02:53:18.743Z,14.30
2022-08-24T02:56:21.122Z,14.20
2022-08-24T02:59:23.349Z,14.30
2022-08-24T03:02:25.008Z,14.30
2022-08-24T03:05:26.938Z,14.10
2022-08-24T03:08:28.042Z,14.10
2022-08-24T03:11:30.489Z,14.10
2022-08-24T03:14:31.713Z,13.90
2022-08-24T03:17:33.892Z,14.00
2022-08-24T03:20:35.181Z,14.00
2022-08-24T03:23:37.305Z,13.90
2022-08-24T03:26:39.248Z,13.80
2022-08-24T03:29:46.379Z,13.70
2022-08-24T03:32:47.948Z,13.70
2022-08-24T03:35:49.496Z,13.70
2022-08-24T03:38:51.726Z,13.70
2022-08-24T03:41:53.627Z,13.50
2022-08-24T03:44:54.535Z,13.50
2022-08-24T03:47:57.211Z,13.60
2022-08-24T03:50:59.631Z,13.50
2022-08-24T03:54:05.531Z,13.50
2022-08-24T03:57:06.750Z,13.40
2022-08-24T04:00:12.216Z,13.60
2022-08-24T04:03:15.501Z,13.60
2022-08-24T04:06:20.650Z,13.60
2022-08-24T04:09:21.936Z,13.50
2022-08-24T04:12:23.437Z,13.40
2022-08-24T04:15:25.294Z,13.40
2022-08-24T04:18:28.702Z,13.40
2022-08-24T04:21:35.417Z,13.40
2022-08-24T04:24:38.994Z,13.40
2022-08-24T04:27:41.206Z,13.40
2022-08-24T04:30:47.200Z,13.50
2022-08-24T04:33:56.329Z,13.50
2022-08-24T04:36:57.592Z,13.30
2022-08-24T04:39:58.891Z,13.10
2022-08-24T04:43:09.264Z,13.00
2022-08-24T04:46:16.435Z,13.20
2022-08-24T04:49:17.792Z,13.20
2022-08-24T04:52:19.071Z,13.20
2022-08-24T04:55:20.960Z,13.10
2022-08-24T04:58:22.289Z,13.20
2022-08-24T05:01:28.053Z,13.30
2022-08-24T05:04:31.306Z,13.20
2022-08-24T05:07:32.998Z,13.10
2022-08-24T05:10:34.143Z,13.30
2022-08-24T05:13:37.306Z,13.40
2022-08-24T05:16:38.677Z,13.60
2022-08-24T05:19:46.803Z,13.70
2022-08-24T05:22:49.446Z,13.80
2022-08-24T05:25:53.100Z,13.90
2022-08-24T05:29:00.449Z,14.20
2022-08-24T05:32:06.492Z,14.30
2022-08-24T05:35:08.836Z,14.40
2022-08-24T05:38:09.958Z,14.60
2022-08-24T05:41:11.689Z,14.60
2022-08-24T05:44:17.105Z,14.70
2022-08-24T05:47:19.684Z,14.70
2022-08-24T05:50:22.026Z,14.80
2022-08-24T05:53:23.720Z,14.90
2022-08-24T05:56:27.685Z,15.10
2022-08-24T05:59:33.190Z,15.50
2022-08-24T06:02:37.750Z,15.60
2022-08-24T06:05:45.213Z,15.50
2022-08-24T06:08:50.121Z,15.70
2022-08-24T06:11:51.540Z,15.80
2022-08-24T06:14:53.433Z,16.00
2022-08-24T06:17:57.382Z,16.20
2022-08-24T06:20:59.540Z,16.40
2022-08-24T06:24:02.084Z,16.60
2022-08-24T06:27:21.502Z,16.70
2022-08-24T06:30:23.332Z,16.80
2022-08-24T06:33:49.152Z,17.00
2022-08-24T06:36:50.409Z,17.30
2022-08-24T06:39:55.018Z,17.30
2022-08-24T06:43:03.719Z,17.30
2022-08-24T06:46:40.691Z,17.40
2022-08-24T06:49:42.041Z,17.60
2022-08-24T06:52:43.244Z,17.60
2022-08-24T06:55:54.229Z,17.60
2022-08-24T06:58:56.190Z,17.80
2022-08-24T07:01:59.438Z,17.70
2022-08-24T07:05:02.502Z,17.90
2022-08-24T07:08:30.609Z,18.00
2022-08-24T07:11:32.930Z,18.10
2022-08-24T07:14:34.456Z,18.30
2022-08-24T07:17:37.288Z,18.40
2022-08-24T07:20:39.766Z,18.50
2022-08-24T07:24:02.555Z,18.80
2022-08-24T07:27:07.669Z,18.90
2022-08-24T07:30:26.348Z,18.60
2022-08-24T07:33:30.448Z,18.50
2022-08-24T07:36:32.724Z,18.40
2022-08-24T07:39:34.289Z,18.90
2022-08-24T07:42:35.167Z,19.20
2022-08-24T07:45:36.463Z,19.30
2022-08-24T07:48:37.441Z,19.40
2022-08-24T07:51:39.110Z,19.70
2022-08-24T07:54:47.608Z,19.70
2022-08-24T07:57:48.930Z,19.90
2022-08-24T08:00:49.791Z,20.00
2022-08-24T08:03:52.208Z,20.40
2022-08-24T08:10:16.360Z,20.60
2022-08-24T08:13:17.649Z,20.60
2022-08-24T08:16:21.381Z,20.80
2022-08-24T08:19:22.691Z,21.00
2022-08-24T08:22:42.941Z,20.90
2022-08-24T08:26:21.558Z,21.20
2022-08-24T08:29:43.519Z,21.20
2022-08-24T08:32:44.813Z,21.50
2022-08-24T08:35:45.875Z,21.80
2022-08-24T08:38:46.848Z,21.90
2022-08-24T08:42:06.334Z,22.20
2022-08-24T08:45:56.444Z,22.30
2022-08-24T08:50:06.095Z,22.60
2022-08-24T08:53:39.250Z,22.90
2022-08-24T08:57:12.068Z,23.20
2022-08-24T09:00:46.279Z,23.10
2022-08-24T09:04:26.567Z,23.60
2022-08-24T09:08:01.667Z,24.10
2022-08-24T09:11:32.507Z,24.20
2022-08-24T09:15:28.848Z,24.30
2022-08-24T09:19:09.116Z,24.90
2022-08-24T09:22:20.308Z,24.80
2022-08-24T09:25:37.588Z,24.90
2022-08-24T09:29:05.537Z,25.10
2022-08-24T09:32:45.027Z,25.00
2022-08-24T09:36:06.088Z,25.30
2022-08-24T09:39:20.239Z,25.90
2022-08-24T09:42:47.618Z,26.70
2022-08-24T09:46:09.687Z,26.80
2022-08-24T09:49:43.264Z,27.20
2022-08-24T09:53:21.241Z,26.70
2022-08-24T09:57:13.321Z,28.20
2022-08-24T10:00:27.644Z,27.70
2022-08-24T10:03:51.729Z,28.00
2022-08-24T10:07:28.025Z,28.00
2022-08-24T10:10:49.582Z,28.50
2022-08-24T10:14:20.933Z,28.30
2022-08-24T10:18:18.760Z,29.60
2022-08-24T10:21:43.385Z,29.80
2022-08-24T10:25:15.527Z,30.50
2022-08-24T10:28:34.264Z,31.40
2022-08-24T10:32:01.766Z,31.60
2022-08-24T10:35:14.478Z,31.50
2022-08-24T10:38:44.759Z,32.10
2022-08-24T10:42:33.266Z,32.10
2022-08-24T10:45:46.333Z,33.20
2022-08-24T10:49:36.709Z,33.40
2022-08-24T10:53:16.038Z,33.30
2022-08-24T10:56:30.075Z,33.10
2022-08-24T10:59:59.746Z,33.70
2022-08-24T11:03:13.045Z,33.60
2022-08-24T11:06:19.484Z,34.30
2022-08-24T11:09:20.720Z,34.80
2022-08-24T11:12:44.880Z,35.10
2022-08-24T11:16:00.358Z,34.30
2022-08-24T11:19:07.523Z,35.10
2022-08-24T11:22:38.117Z,35.70
2022-08-24T11:25:54.976Z,35.90
2022-08-24T11:29:05.518Z,35.80
2022-08-24T11:32:06.887Z,35.70
2022-08-24T11:35:39.958Z,34.50
2022-08-24T11:38:45.827Z,35.50
2022-08-24T11:42:03.677Z,35.80
2022-08-24T11:45:07.795Z,35.90
2022-08-24T11:48:36.297Z,35.80
2022-08-24T11:51:51.239Z,35.90
2022-08-24T11:55:10.594Z,35.50
2022-08-24T11:58:53.527Z,35.30
2022-08-24T12:02:11.054Z,33.10
2022-08-24T12:05:28.596Z,33.20
2022-08-24T12:08:51.311Z,33.40
2022-08-24T12:12:26.256Z,34.30
2022-08-24T12:15:52.011Z,33.70
2022-08-24T12:19:14.702Z,33.10
2022-08-24T12:22:20.138Z,33.20
2022-08-24T12:25:40.678Z,33.90
2022-08-24T12:28:54.605Z,34.60
2022-08-24T12:32:24.628Z,34.40
2022-08-24T12:35:39.282Z,33.70
2022-08-24T12:38:50.306Z,33.60
2022-08-24T12:42:19.565Z,34.50
2022-08-24T12:45:23.620Z,33.60
2022-08-24T12:48:46.168Z,33.10
2022-08-24T12:52:25.709Z,34.10
2022-08-24T12:55:56.897Z,35.20
2022-08-24T12:59:22.168Z,34.00
2022-08-24T13:02:23.145Z,32.90
2022-08-24T13:05:24.223Z,33.70
2022-08-24T13:08:46.989Z,34.60
2022-08-24T13:11:50.341Z,34.30
2022-08-24T13:14:52.318Z,33.40
2022-08-24T13:18:03.239Z,34.70
2022-08-24T13:21:33.867Z,33.80
2022-08-24T13:24:35.324Z,34.90
2022-08-24T13:27:36.601Z,34.40
2022-08-24T13:31:17.275Z,34.50
2022-08-24T13:34:18.153Z,34.80
2022-08-24T13:37:24.451Z,34.00
2022-08-24T13:40:28.230Z,33.50
2022-08-24T13:43:40.217Z,34.20
2022-08-24T13:46:50.641Z,34.30
2022-08-24T13:50:27.818Z,34.60
2022-08-24T13:54:26.122Z,34.70
2022-08-24T13:58:03.461Z,35.80
2022-08-24T14:01:38.859Z,35.10
2022-08-24T14:05:23.624Z,34.90
2022-08-24T14:08:52.601Z,34.60
2022-08-24T14:12:07.455Z,34.80
2022-08-24T14:15:32.130Z,33.90
2022-08-24T14:19:09.640Z,32.60
2022-08-24T14:22:10.653Z,33.10
2022-08-24T14:25:21.270Z,33.50
2022-08-24T14:28:44.089Z,34.10
2022-08-24T14:32:02.797Z,34.30
2022-08-24T14:35:23.439Z,34.40
2022-08-24T14:38:42.148Z,34.60
2022-08-24T14:42:19.718Z,34.90
2022-08-24T14:45:36.002Z,34.90
2022-08-24T14:49:08.115Z,34.70
2022-08-24T14:52:19.341Z,35.30
2022-08-24T14:56:03.429Z,34.90
2022-08-24T14:59:29.113Z,34.40
2022-08-24T15:02:45.523Z,34.00
2022-08-24T15:06:25.643Z,33.70
2022-08-24T15:09:36.828Z,34.20
2022-08-24T15:12:47.860Z,33.30
2022-08-24T15:16:14.282Z,33.10
2022-08-24T15:19:30.445Z,32.90
2022-08-24T15:22:59.807Z,32.80
2022-08-24T15:26:16.295Z,33.00
2022-08-24T15:29:25.312Z,32.10
2022-08-24T15:32:49.207Z,32.00
2022-08-24T15:36:12.238Z,31.90
2022-08-24T15:39:26.901Z,31.70
2022-08-24T15:42:34.863Z,31.50
2022-08-24T15:45:45.851Z,31.70
2022-08-24T15:48:49.352Z,32.00
2022-08-24T15:52:02.155Z,31.70
2022-08-24T15:55:07.181Z,30.70
2022-08-24T15:58:31.442Z,30.70
2022-08-24T16:01:51.524Z,31.60
2022-08-24T16:05:14.557Z,32.60
2022-08-24T16:08:15.707Z,32.00
2022-08-24T16:11:38.475Z,32.00
2022-08-24T16:14:56.727Z,30.90
2022-08-24T16:17:59.583Z,30.50
2022-08-24T16:21:12.202Z,31.00
2022-08-24T16:24:35.154Z,31.20
2022-08-24T16:28:23.816Z,30.80
2022-08-24T16:31:49.923Z,30.50
2022-08-24T16:35:18.306Z,29.50
2022-08-24T16:38:19.434Z,28.60
2022-08-24T16:41:25.088Z,28.60
2022-08-24T16:44:34.050Z,28.30
2022-08-24T16:47:35.149Z,28.20
2022-08-24T16:50:36.510Z,28.00
2022-08-24T16:53:37.415Z,28.00
2022-08-24T16:56:38.364Z,28.00
2022-08-24T16:59:42.984Z,27.80
2022-08-24T17:02:46.819Z,27.30
2022-08-24T17:05:47.875Z,26.80
2022-08-24T17:08:49.740Z,26.70
2022-08-24T17:11:50.957Z,26.50
2022-08-24T17:14:51.600Z,25.80
2022-08-24T17:18:06.386Z,25.60
2022-08-24T17:21:08.607Z,25.40
2022-08-24T17:24:11.714Z,25.30
2022-08-24T17:27:14.827Z,25.30
2022-08-24T17:30:20.318Z,25.00
2022-08-24T17:33:21.403Z,24.80
2022-08-24T17:36:24.352Z,24.60
2022-08-24T17:39:25.966Z,24.50
2022-08-24T17:42:50.420Z,24.40
2022-08-24T17:45:48.118Z,24.30
2022-08-24T17:48:51.222Z,24.10
2022-08-24T17:51:53.309Z,24.00
2022-08-24T17:54:54.305Z,23.90
2022-08-24T17:57:55.193Z,23.70
2022-08-24T18:00:56.627Z,23.60
2022-08-24T18:03:58.024Z,23.50
2022-08-24T18:07:03.790Z,23.40
2022-08-24T18:10:09.822Z,23.20
2022-08-24T18:13:11.468Z,23.10
2022-08-24T18:16:20.960Z,23.00
2022-08-24T18:19:24.399Z,22.90
2022-08-24T18:22:25.734Z,22.80
2022-08-24T18:25:28.332Z,22.60
2022-08-24T18:28:29.459Z,22.30
2022-08-24T18:31:31.386Z,22.10
2022-08-24T18:34:34.404Z,21.80
2022-08-24T18:37:35.516Z,21.70
2022-08-24T18:40:36.448Z,21.70
2022-08-24T18:43:38.064Z,21.40
2022-08-24T18:46:39.992Z,21.10
2022-08-24T18:49:40.896Z,21.00
2022-08-24T18:52:42.666Z,21.00
2022-08-24T18:55:46.369Z,21.10
2022-08-24T18:58:47.486Z,20.90
2022-08-24T19:02:10.129Z,20.90
2022-08-24T19:05:20.742Z,20.80
2022-08-24T19:08:23.354Z,20.90
2022-08-24T19:11:24.504Z,20.90
2022-08-24T19:14:25.818Z,21.00
2022-08-24T19:17:27.310Z,20.90
2022-08-24T19:20:28.868Z,20.90
2022-08-24T19:23:37.401Z,20.90
2022-08-24T19:26:38.662Z,20.90
2022-08-24T19:29:55.085Z,20.90
2022-08-24T19:32:58.769Z,20.90
2022-08-24T19:36:00.189Z,21.10
2022-08-24T19:39:01.233Z,21.00
2022-08-24T19:42:04.351Z,21.10
2022-08-24T19:45:25.883Z,21.20
2022-08-24T19:48:26.862Z,21.20
2022-08-24T19:51:28.569Z,21.10
2022-08-24T19:54:39.954Z,21.20
2022-08-24T19:58:27.387Z,21.10
2022-08-24T20:01:34.890Z,21.10
2022-08-24T20:04:35.940Z,21.00
2022-08-24T20:07:37.753Z,20.90
2022-08-24T20:10:39.333Z,20.90
2022-08-24T20:13:40.391Z,20.90
2022-08-24T20:16:42.446Z,20.90
2022-08-24T20:19:43.752Z,20.90
2022-08-24T20:22:45.360Z,20.80
2022-08-24T20:25:46.344Z,20.70
2022-08-24T20:28:52.074Z,20.70
2022-08-24T20:31:55.970Z,20.60
2022-08-24T20:34:56.993Z,20.70
2022-08-24T20:37:57.883Z,20.70
2022-08-24T20:40:59.709Z,20.70
2022-08-24T20:44:01.725Z,20.70
2022-08-24T20:47:04.490Z,20.60
2022-08-24T20:50:07.166Z,20.50
2022-08-24T20:53:11.296Z,20.40
2022-08-24T20:56:31.098Z,20.30
2022-08-24T20:59:34.382Z,20.30
2022-08-24T21:02:35.587Z,20.30
2022-08-24T21:05:39.194Z,20.30
2022-08-24T21:08:43.013Z,20.40
2022-08-24T21:11:46.346Z,20.40
2022-08-24T21:14:47.502Z,20.30
2022-08-24T21:17:52.802Z,20.20
2022-08-24T21:21:03.430Z,20.10
2022-08-24T21:24:07.461Z,20.10
2022-08-24T21:27:08.954Z,20.10
2022-08-24T21:30:20.063Z,20.00
2022-08-24T21:33:39.862Z,20.00
2022-08-24T21:36:42.017Z,20.00
2022-08-24T21:39:44.472Z,19.90
2022-08-24T21:42:46.221Z,19.90
2022-08-24T21:45:51.443Z,19.90
2022-08-24T21:48:52.180Z,19.80
2022-08-24T21:51:53.906Z,19.70
2022-08-24T21:54:56.438Z,19.60
2022-08-24T21:57:57.325Z,19.50
2022-08-24T22:01:00.017Z,19.50
2022-08-24T22:04:05.037Z,19.40
2022-08-24T22:07:06.190Z,19.30
2022-08-24T22:10:08.882Z,19.30
2022-08-24T22:13:10.263Z,19.10
2022-08-24T22:16:13.494Z,19.10
2022-08-24T22:19:15.030Z,19.00
2022-08-24T22:22:16.793Z,19.00
2022-08-24T22:25:18.216Z,18.90
2022-08-24T22:28:19.438Z,18.80
2022-08-24T22:31:25.899Z,18.70
2022-08-24T22:34:27.160Z,18.60
2022-08-24T22:37:28.532Z,18.50
2022-08-24T22:40:29.705Z,18.40
2022-08-24T22:43:51.464Z,18.40
2022-08-24T22:46:57.561Z,18.30
2022-08-24T22:49:59.104Z,18.30
2022-08-24T22:53:00.030Z,18.20
2022-08-24T22:56:01.486Z,18.10
2022-08-24T22:59:03.297Z,18.00
2022-08-24T23:02:09.167Z,17.90
2022-08-24T23:05:10.413Z,17.90
2022-08-24T23:08:11.535Z,17.90
2022-08-24T23:11:14.064Z,17.80
2022-08-24T23:14:15.638Z,17.80
2022-08-24T23:17:18.423Z,17.50
2022-08-24T23:20:19.442Z,17.30
2022-08-24T23:23:20.286Z,17.20
2022-08-24T23:26:21.336Z,17.30
2022-08-24T23:29:22.333Z,17.20
2022-08-24T23:32:23.600Z,17.20
2022-08-24T23:35:24.904Z,17.20
2022-08-24T23:38:26.053Z,17.20
2022-08-24T23:41:34.781Z,17.30
2022-08-24T23:44:36.323Z,17.20
2022-08-24T23:47:37.731Z,17.20
2022-08-24T23:50:38.664Z,17.20
2022-08-24T23:53:46.747Z,17.20
2022-08-24T23:56:51.229Z,17.20
2022-08-24T23:59:52.180Z,17.20
